sensor_id;sensor_type;location;lat;lon;timestamp;P1;durP1;ratioP1;P2;durP2;ratioP2
72711;SDS011;60828;40.292;17.998;2022-07-15T00:02:09;8.57;;;3.97;;
72711;SDS011;60828;40.292;17.998;2022-07-15T00:04:35;6.53;;;3.92;;
72711;SDS011;60828;40.292;17.998;2022-07-15T00:07:02;8.03;;;4.03;;
72711;SDS011;60828;40.292;17.998;2022-07-15T00:09:28;7.85;;;3.95;;
72711;SDS011;60828;40.292;17.998;2022-07-15T00:12:13;8.43;;;3.95;;
72711;SDS011;60828;40.292;17.998;2022-07-15T00:14:39;8.03;;;4.30;;
72711;SDS011;60828;40.292;17.998;2022-07-15T00:17:05;8.65;;;4.15;;
72711;SDS011;60828;40.292;17.998;2022-07-15T00:19:34;8.20;;;4.00;;
72711;SDS011;60828;40.292;17.998;2022-07-15T00:22:00;6.97;;;4.18;;
72711;SDS011;60828;40.292;17.998;2022-07-15T00:24:25;8.03;;;4.10;;
72711;SDS011;60828;40.292;17.998;2022-07-15T00:26:52;8.73;;;4.22;;
72711;SDS011;60828;40.292;17.998;2022-07-15T00:29:20;6.38;;;4.00;;
72711;SDS011;60828;40.292;17.998;2022-07-15T00:31:45;7.43;;;4.20;;
72711;SDS011;60828;40.292;17.998;2022-07-15T00:34:11;8.87;;;3.87;;
72711;SDS011;60828;40.292;17.998;2022-07-15T00:36:38;9.40;;;4.10;;
72711;SDS011;60828;40.292;17.998;2022-07-15T00:39:04;8.35;;;4.00;;
72711;SDS011;60828;40.292;17.998;2022-07-15T00:41:39;8.57;;;4.10;;
72711;SDS011;60828;40.292;17.998;2022-07-15T00:44:05;7.70;;;3.95;;
72711;SDS011;60828;40.292;17.998;2022-07-15T00:46:34;8.27;;;4.30;;
72711;SDS011;60828;40.292;17.998;2022-07-15T00:49:00;9.60;;;4.40;;
72711;SDS011;60828;40.292;17.998;2022-07-15T00:51:32;6.45;;;3.97;;
72711;SDS011;60828;40.292;17.998;2022-07-15T00:54:01;8.27;;;4.03;;
72711;SDS011;60828;40.292;17.998;2022-07-15T00:56:29;8.23;;;4.10;;
72711;SDS011;60828;40.292;17.998;2022-07-15T00:59:00;7.43;;;3.80;;
72711;SDS011;60828;40.292;17.998;2022-07-15T01:01:26;7.87;;;3.60;;
72711;SDS011;60828;40.292;17.998;2022-07-15T01:03:52;9.25;;;4.90;;
72711;SDS011;60828;40.292;17.998;2022-07-15T01:06:20;8.15;;;4.53;;
72711;SDS011;60828;40.292;17.998;2022-07-15T01:08:46;7.50;;;3.93;;
72711;SDS011;60828;40.292;17.998;2022-07-15T01:11:11;9.80;;;4.50;;
72711;SDS011;60828;40.292;17.998;2022-07-15T01:13:39;8.05;;;4.30;;
72711;SDS011;60828;40.292;17.998;2022-07-15T01:16:05;5.83;;;4.03;;
72711;SDS011;60828;40.292;17.998;2022-07-15T01:18:31;8.70;;;3.97;;
72711;SDS011;60828;40.292;17.998;2022-07-15T01:20:58;11.98;;;4.40;;
72711;SDS011;60828;40.292;17.998;2022-07-15T01:23:24;8.90;;;3.90;;
72711;SDS011;60828;40.292;17.998;2022-07-15T01:25:50;8.43;;;4.43;;
72711;SDS011;60828;40.292;17.998;2022-07-15T01:28:19;7.55;;;4.00;;
72711;SDS011;60828;40.292;17.998;2022-07-15T01:30:45;6.03;;;3.80;;
72711;SDS011;60828;40.292;17.998;2022-07-15T01:33:11;9.40;;;4.53;;
72711;SDS011;60828;40.292;17.998;2022-07-15T01:35:37;5.90;;;4.10;;
72711;SDS011;60828;40.292;17.998;2022-07-15T01:38:02;6.27;;;4.00;;
72711;SDS011;60828;40.292;17.998;2022-07-15T01:40:28;7.45;;;4.50;;
72711;SDS011;60828;40.292;17.998;2022-07-15T01:42:55;8.20;;;4.72;;
72711;SDS011;60828;40.292;17.998;2022-07-15T01:45:21;7.67;;;4.50;;
72711;SDS011;60828;40.292;17.998;2022-07-15T01:47:47;7.65;;;4.70;;
72711;SDS011;60828;40.292;17.998;2022-07-15T01:50:14;7.30;;;4.90;;
72711;SDS011;60828;40.292;17.998;2022-07-15T01:52:40;6.07;;;4.57;;
72711;SDS011;60828;40.292;17.998;2022-07-15T01:55:07;8.13;;;4.78;;
72711;SDS011;60828;40.292;17.998;2022-07-15T01:57:33;6.90;;;4.65;;
72711;SDS011;60828;40.292;17.998;2022-07-15T01:59:59;7.43;;;4.77;;
72711;SDS011;60828;40.292;17.998;2022-07-15T02:02:25;8.00;;;5.30;;
72711;SDS011;60828;40.292;17.998;2022-07-15T02:04:52;8.88;;;5.00;;
72711;SDS011;60828;40.292;17.998;2022-07-15T02:07:18;7.37;;;5.10;;
72711;SDS011;60828;40.292;17.998;2022-07-15T02:09:46;9.77;;;5.03;;
72711;SDS011;60828;40.292;17.998;2022-07-15T02:12:11;9.15;;;5.00;;
72711;SDS011;60828;40.292;17.998;2022-07-15T02:14:37;7.00;;;4.90;;
72711;SDS011;60828;40.292;17.998;2022-07-15T02:17:02;10.18;;;5.57;;
72711;SDS011;60828;40.292;17.998;2022-07-15T02:19:28;10.50;;;5.30;;
72711;SDS011;60828;40.292;17.998;2022-07-15T02:21:54;10.43;;;5.97;;
72711;SDS011;60828;40.292;17.998;2022-07-15T02:24:20;11.50;;;6.00;;
72711;SDS011;60828;40.292;17.998;2022-07-15T02:26:45;9.75;;;5.90;;
72711;SDS011;60828;40.292;17.998;2022-07-15T02:29:13;7.40;;;5.10;;
72711;SDS011;60828;40.292;17.998;2022-07-15T02:31:42;7.77;;;5.13;;
72711;SDS011;60828;40.292;17.998;2022-07-15T02:34:08;8.73;;;5.38;;
72711;SDS011;60828;40.292;17.998;2022-07-15T02:36:34;8.43;;;5.18;;
72711;SDS011;60828;40.292;17.998;2022-07-15T02:39:00;8.50;;;5.43;;
72711;SDS011;60828;40.292;17.998;2022-07-15T02:41:29;8.27;;;5.30;;
72711;SDS011;60828;40.292;17.998;2022-07-15T02:43:57;9.13;;;5.10;;
72711;SDS011;60828;40.292;17.998;2022-07-15T02:46:24;8.13;;;5.43;;
72711;SDS011;60828;40.292;17.998;2022-07-15T02:48:49;7.13;;;5.17;;
72711;SDS011;60828;40.292;17.998;2022-07-15T02:51:15;6.45;;;4.93;;
72711;SDS011;60828;40.292;17.998;2022-07-15T02:53:40;6.43;;;4.30;;
72711;SDS011;60828;40.292;17.998;2022-07-15T02:56:06;6.50;;;4.60;;
72711;SDS011;60828;40.292;17.998;2022-07-15T02:58:32;10.77;;;5.18;;
72711;SDS011;60828;40.292;17.998;2022-07-15T03:00:58;8.27;;;4.85;;
72711;SDS011;60828;40.292;17.998;2022-07-15T03:03:24;6.65;;;4.30;;
72711;SDS011;60828;40.292;17.998;2022-07-15T03:05:53;6.63;;;4.53;;
72711;SDS011;60828;40.292;17.998;2022-07-15T03:08:20;7.53;;;4.50;;
72711;SDS011;60828;40.292;17.998;2022-07-15T03:10:49;6.73;;;4.80;;
72711;SDS011;60828;40.292;17.998;2022-07-15T03:13:14;6.20;;;4.35;;
72711;SDS011;60828;40.292;17.998;2022-07-15T03:15:40;6.50;;;4.65;;
72711;SDS011;60828;40.292;17.998;2022-07-15T03:18:06;7.33;;;4.63;;
72711;SDS011;60828;40.292;17.998;2022-07-15T03:20:32;7.35;;;4.30;;
72711;SDS011;60828;40.292;17.998;2022-07-15T03:22:58;8.77;;;4.90;;
72711;SDS011;60828;40.292;17.998;2022-07-15T03:25:24;11.27;;;5.80;;
72711;SDS011;60828;40.292;17.998;2022-07-15T03:27:52;6.40;;;4.73;;
72711;SDS011;60828;40.292;17.998;2022-07-15T03:30:18;9.95;;;4.32;;
72711;SDS011;60828;40.292;17.998;2022-07-15T03:32:45;6.30;;;4.50;;
72711;SDS011;60828;40.292;17.998;2022-07-15T03:35:11;6.40;;;4.40;;
72711;SDS011;60828;40.292;17.998;2022-07-15T03:37:36;9.45;;;4.78;;
72711;SDS011;60828;40.292;17.998;2022-07-15T03:40:02;6.93;;;4.77;;
72711;SDS011;60828;40.292;17.998;2022-07-15T03:42:33;9.15;;;5.65;;
72711;SDS011;60828;40.292;17.998;2022-07-15T03:44:59;7.97;;;4.77;;
72711;SDS011;60828;40.292;17.998;2022-07-15T03:47:24;7.53;;;5.10;;
72711;SDS011;60828;40.292;17.998;2022-07-15T03:49:51;9.77;;;5.05;;
72711;SDS011;60828;40.292;17.998;2022-07-15T03:52:20;9.13;;;4.80;;
72711;SDS011;60828;40.292;17.998;2022-07-15T03:54:45;10.95;;;5.50;;
72711;SDS011;60828;40.292;17.998;2022-07-15T03:57:11;10.23;;;5.50;;
72711;SDS011;60828;40.292;17.998;2022-07-15T03:59:39;6.90;;;4.30;;
72711;SDS011;60828;40.292;17.998;2022-07-15T04:02:05;6.10;;;3.72;;
72711;SDS011;60828;40.292;17.998;2022-07-15T04:04:30;6.15;;;4.28;;
72711;SDS011;60828;40.292;17.998;2022-07-15T04:06:56;5.57;;;3.80;;
72711;SDS011;60828;40.292;17.998;2022-07-15T04:09:26;7.63;;;4.30;;
72711;SDS011;60828;40.292;17.998;2022-07-15T04:11:52;6.93;;;4.07;;
72711;SDS011;60828;40.292;17.998;2022-07-15T04:14:17;8.95;;;4.90;;
72711;SDS011;60828;40.292;17.998;2022-07-15T04:16:45;7.20;;;4.33;;
72711;SDS011;60828;40.292;17.998;2022-07-15T04:19:11;6.68;;;4.10;;
72711;SDS011;60828;40.292;17.998;2022-07-15T04:21:36;8.20;;;5.10;;
72711;SDS011;60828;40.292;17.998;2022-07-15T04:24:02;11.30;;;4.30;;
72711;SDS011;60828;40.292;17.998;2022-07-15T04:26:29;12.45;;;7.47;;
72711;SDS011;60828;40.292;17.998;2022-07-15T04:28:56;8.87;;;4.63;;
72711;SDS011;60828;40.292;17.998;2022-07-15T04:31:22;6.32;;;4.03;;
72711;SDS011;60828;40.292;17.998;2022-07-15T04:33:47;8.02;;;4.70;;
72711;SDS011;60828;40.292;17.998;2022-07-15T04:36:13;6.37;;;3.60;;
72711;SDS011;60828;40.292;17.998;2022-07-15T04:38:43;6.53;;;3.28;;
72711;SDS011;60828;40.292;17.998;2022-07-15T04:41:09;14.32;;;5.25;;
72711;SDS011;60828;40.292;17.998;2022-07-15T04:43:34;5.27;;;2.83;;
72711;SDS011;60828;40.292;17.998;2022-07-15T04:46:00;6.83;;;3.70;;
72711;SDS011;60828;40.292;17.998;2022-07-15T04:48:28;5.88;;;3.17;;
72711;SDS011;60828;40.292;17.998;2022-07-15T04:51:12;18.13;;;3.63;;
72711;SDS011;60828;40.292;17.998;2022-07-15T04:53:38;5.28;;;3.05;;
72711;SDS011;60828;40.292;17.998;2022-07-15T04:56:03;27.73;;;14.20;;
72711;SDS011;60828;40.292;17.998;2022-07-15T04:58:31;10.80;;;4.50;;
72711;SDS011;60828;40.292;17.998;2022-07-15T05:00:56;14.67;;;4.53;;
72711;SDS011;60828;40.292;17.998;2022-07-15T05:03:22;12.07;;;5.00;;
72711;SDS011;60828;40.292;17.998;2022-07-15T05:05:48;12.90;;;4.30;;
72711;SDS011;60828;40.292;17.998;2022-07-15T05:08:15;11.15;;;4.18;;
72711;SDS011;60828;40.292;17.998;2022-07-15T05:10:41;62.08;;;7.22;;
72711;SDS011;60828;40.292;17.998;2022-07-15T05:13:08;10.23;;;4.13;;
72711;SDS011;60828;40.292;17.998;2022-07-15T05:15:33;7.00;;;3.83;;
72711;SDS011;60828;40.292;17.998;2022-07-15T05:17:59;28.35;;;5.20;;
72711;SDS011;60828;40.292;17.998;2022-07-15T05:20:24;54.77;;;6.80;;
72711;SDS011;60828;40.292;17.998;2022-07-15T05:22:50;25.03;;;5.37;;
72711;SDS011;60828;40.292;17.998;2022-07-15T05:25:16;20.15;;;4.90;;
72711;SDS011;60828;40.292;17.998;2022-07-15T05:27:41;59.60;;;7.23;;
72711;SDS011;60828;40.292;17.998;2022-07-15T05:30:07;16.98;;;4.32;;
72711;SDS011;60828;40.292;17.998;2022-07-15T05:32:34;22.73;;;5.03;;
72711;SDS011;60828;40.292;17.998;2022-07-15T05:34:59;24.63;;;5.28;;
72711;SDS011;60828;40.292;17.998;2022-07-15T05:37:25;15.03;;;4.60;;
72711;SDS011;60828;40.292;17.998;2022-07-15T05:39:50;7.93;;;3.10;;
72711;SDS011;60828;40.292;17.998;2022-07-15T05:42:19;13.03;;;4.10;;
72711;SDS011;60828;40.292;17.998;2022-07-15T05:44:48;16.70;;;3.90;;
72711;SDS011;60828;40.292;17.998;2022-07-15T05:47:14;12.85;;;4.05;;
72711;SDS011;60828;40.292;17.998;2022-07-15T05:49:41;9.88;;;4.13;;
72711;SDS011;60828;40.292;17.998;2022-07-15T05:52:07;9.97;;;3.03;;
72711;SDS011;60828;40.292;17.998;2022-07-15T05:54:33;11.35;;;3.75;;
72711;SDS011;60828;40.292;17.998;2022-07-15T05:56:58;8.83;;;3.80;;
72711;SDS011;60828;40.292;17.998;2022-07-15T05:59:24;8.55;;;3.17;;
72711;SDS011;60828;40.292;17.998;2022-07-15T06:01:49;7.37;;;3.37;;
72711;SDS011;60828;40.292;17.998;2022-07-15T06:04:15;13.83;;;3.37;;
72711;SDS011;60828;40.292;17.998;2022-07-15T06:06:40;8.52;;;3.20;;
72711;SDS011;60828;40.292;17.998;2022-07-15T06:09:06;8.63;;;2.97;;
72711;SDS011;60828;40.292;17.998;2022-07-15T06:11:32;42.30;;;4.90;;
72711;SDS011;60828;40.292;17.998;2022-07-15T06:13:59;9.95;;;3.13;;
72711;SDS011;60828;40.292;17.998;2022-07-15T06:16:25;10.43;;;3.25;;
72711;SDS011;60828;40.292;17.998;2022-07-15T06:18:51;12.77;;;3.20;;
72711;SDS011;60828;40.292;17.998;2022-07-15T06:21:17;6.47;;;3.50;;
72711;SDS011;60828;40.292;17.998;2022-07-15T06:23:42;10.23;;;3.07;;
72711;SDS011;60828;40.292;17.998;2022-07-15T06:26:08;6.03;;;2.80;;
72711;SDS011;60828;40.292;17.998;2022-07-15T06:28:34;8.60;;;3.37;;
72711;SDS011;60828;40.292;17.998;2022-07-15T06:31:00;7.78;;;2.80;;
72711;SDS011;60828;40.292;17.998;2022-07-15T06:33:27;26.38;;;3.90;;
72711;SDS011;60828;40.292;17.998;2022-07-15T06:35:53;7.00;;;4.10;;
72711;SDS011;60828;40.292;17.998;2022-07-15T06:38:20;7.88;;;2.80;;
72711;SDS011;60828;40.292;17.998;2022-07-15T06:40:45;6.20;;;2.50;;
72711;SDS011;60828;40.292;17.998;2022-07-15T06:43:11;12.00;;;2.90;;
72711;SDS011;60828;40.292;17.998;2022-07-15T06:45:37;12.15;;;2.72;;
72711;SDS011;60828;40.292;17.998;2022-07-15T06:48:03;11.27;;;2.70;;
72711;SDS011;60828;40.292;17.998;2022-07-15T06:50:28;4.53;;;2.25;;
72711;SDS011;60828;40.292;17.998;2022-07-15T06:52:54;5.73;;;2.80;;
72711;SDS011;60828;40.292;17.998;2022-07-15T06:55:19;5.30;;;2.70;;
72711;SDS011;60828;40.292;17.998;2022-07-15T06:57:45;13.93;;;3.25;;
72711;SDS011;60828;40.292;17.998;2022-07-15T07:00:11;4.30;;;2.63;;
72711;SDS011;60828;40.292;17.998;2022-07-15T07:02:38;14.27;;;3.85;;
72711;SDS011;60828;40.292;17.998;2022-07-15T07:05:04;11.60;;;3.10;;
72711;SDS011;60828;40.292;17.998;2022-07-15T07:07:30;29.87;;;4.60;;
72711;SDS011;60828;40.292;17.998;2022-07-15T07:09:56;10.55;;;2.90;;
72711;SDS011;60828;40.292;17.998;2022-07-15T07:12:21;11.40;;;4.93;;
72711;SDS011;60828;40.292;17.998;2022-07-15T07:14:47;8.57;;;2.73;;
72711;SDS011;60828;40.292;17.998;2022-07-15T07:17:12;4.60;;;2.43;;
72711;SDS011;60828;40.292;17.998;2022-07-15T07:19:38;6.70;;;2.70;;
72711;SDS011;60828;40.292;17.998;2022-07-15T07:22:04;5.53;;;2.55;;
72711;SDS011;60828;40.292;17.998;2022-07-15T07:24:30;7.90;;;3.33;;
72711;SDS011;60828;40.292;17.998;2022-07-15T07:26:56;6.03;;;2.60;;
72711;SDS011;60828;40.292;17.998;2022-07-15T07:29:21;5.13;;;2.50;;
72711;SDS011;60828;40.292;17.998;2022-07-15T07:31:51;17.20;;;3.17;;
72711;SDS011;60828;40.292;17.998;2022-07-15T07:34:16;7.85;;;2.70;;
72711;SDS011;60828;40.292;17.998;2022-07-15T07:36:42;5.93;;;2.38;;
72711;SDS011;60828;40.292;17.998;2022-07-15T07:39:10;6.25;;;2.50;;
72711;SDS011;60828;40.292;17.998;2022-07-15T07:41:35;6.93;;;2.43;;
72711;SDS011;60828;40.292;17.998;2022-07-15T07:44:01;7.22;;;2.47;;
72711;SDS011;60828;40.292;17.998;2022-07-15T07:46:26;6.23;;;2.30;;
72711;SDS011;60828;40.292;17.998;2022-07-15T07:48:52;4.43;;;2.17;;
72711;SDS011;60828;40.292;17.998;2022-07-15T07:51:17;3.85;;;2.10;;
72711;SDS011;60828;40.292;17.998;2022-07-15T07:53:43;5.50;;;2.60;;
72711;SDS011;60828;40.292;17.998;2022-07-15T07:56:09;6.22;;;2.55;;
72711;SDS011;60828;40.292;17.998;2022-07-15T07:58:34;6.37;;;2.73;;
72711;SDS011;60828;40.292;17.998;2022-07-15T08:01:00;8.73;;;3.13;;
72711;SDS011;60828;40.292;17.998;2022-07-15T08:03:26;5.57;;;2.63;;
72711;SDS011;60828;40.292;17.998;2022-07-15T08:05:55;5.68;;;2.50;;
72711;SDS011;60828;40.292;17.998;2022-07-15T08:08:20;5.40;;;2.47;;
72711;SDS011;60828;40.292;17.998;2022-07-15T08:10:49;6.37;;;2.50;;
72711;SDS011;60828;40.292;17.998;2022-07-15T08:13:17;7.45;;;2.60;;
72711;SDS011;60828;40.292;17.998;2022-07-15T08:15:43;5.75;;;2.60;;
72711;SDS011;60828;40.292;17.998;2022-07-15T08:18:09;5.72;;;2.60;;
72711;SDS011;60828;40.292;17.998;2022-07-15T08:20:35;11.87;;;3.10;;
72711;SDS011;60828;40.292;17.998;2022-07-15T08:23:01;8.10;;;2.65;;
72711;SDS011;60828;40.292;17.998;2022-07-15T08:25:27;10.65;;;3.20;;
72711;SDS011;60828;40.292;17.998;2022-07-15T08:27:54;5.75;;;2.50;;
72711;SDS011;60828;40.292;17.998;2022-07-15T08:30:22;7.97;;;2.72;;
72711;SDS011;60828;40.292;17.998;2022-07-15T08:32:50;6.67;;;2.40;;
72711;SDS011;60828;40.292;17.998;2022-07-15T08:35:16;7.72;;;3.70;;
72711;SDS011;60828;40.292;17.998;2022-07-15T08:37:41;20.95;;;3.28;;
72711;SDS011;60828;40.292;17.998;2022-07-15T08:40:07;4.83;;;2.53;;
72711;SDS011;60828;40.292;17.998;2022-07-15T08:42:34;5.70;;;2.50;;
72711;SDS011;60828;40.292;17.998;2022-07-15T08:45:00;22.27;;;3.00;;
72711;SDS011;60828;40.292;17.998;2022-07-15T08:47:26;3.80;;;2.43;;
72711;SDS011;60828;40.292;17.998;2022-07-15T08:49:58;4.13;;;2.35;;
72711;SDS011;60828;40.292;17.998;2022-07-15T08:52:27;18.45;;;3.15;;
72711;SDS011;60828;40.292;17.998;2022-07-15T08:54:53;6.95;;;2.35;;
72711;SDS011;60828;40.292;17.998;2022-07-15T08:57:19;5.20;;;2.40;;
72711;SDS011;60828;40.292;17.998;2022-07-15T08:59:45;4.97;;;2.90;;
72711;SDS011;60828;40.292;17.998;2022-07-15T09:02:14;7.67;;;3.00;;
72711;SDS011;60828;40.292;17.998;2022-07-15T09:13:06;5.85;;;2.70;;
72711;SDS011;60828;40.292;17.998;2022-07-15T09:15:32;5.10;;;2.30;;
72711;SDS011;60828;40.292;17.998;2022-07-15T09:18:07;6.65;;;2.40;;
72711;SDS011;60828;40.292;17.998;2022-07-15T09:20:37;7.63;;;2.85;;
72711;SDS011;60828;40.292;17.998;2022-07-15T09:23:04;4.75;;;2.90;;
72711;SDS011;60828;40.292;17.998;2022-07-15T09:25:30;5.50;;;2.90;;
72711;SDS011;60828;40.292;17.998;2022-07-15T09:28:00;9.35;;;3.20;;
72711;SDS011;60828;40.292;17.998;2022-07-15T09:30:29;7.82;;;2.75;;
72711;SDS011;60828;40.292;17.998;2022-07-15T09:36:19;4.70;;;3.00;;
72711;SDS011;60828;40.292;17.998;2022-07-15T09:46:41;7.25;;;3.40;;
72711;SDS011;60828;40.292;17.998;2022-07-15T09:54:21;9.40;;;4.15;;
72711;SDS011;60828;40.292;17.998;2022-07-15T09:56:56;7.68;;;4.70;;
72711;SDS011;60828;40.292;17.998;2022-07-15T09:59:24;6.95;;;3.92;;
72711;SDS011;60828;40.292;17.998;2022-07-15T10:01:50;5.97;;;3.50;;
72711;SDS011;60828;40.292;17.998;2022-07-15T10:04:17;6.60;;;3.97;;
72711;SDS011;60828;40.292;17.998;2022-07-15T10:06:47;9.10;;;4.72;;
72711;SDS011;60828;40.292;17.998;2022-07-15T10:09:15;5.33;;;4.00;;
72711;SDS011;60828;40.292;17.998;2022-07-15T10:11:50;5.55;;;3.85;;
72711;SDS011;60828;40.292;17.998;2022-07-15T10:25:51;5.95;;;3.20;;
72711;SDS011;60828;40.292;17.998;2022-07-15T10:28:33;5.60;;;3.28;;
72711;SDS011;60828;40.292;17.998;2022-07-15T10:39:12;8.38;;;3.60;;
72711;SDS011;60828;40.292;17.998;2022-07-15T10:44:28;17.10;;;4.18;;
72711;SDS011;60828;40.292;17.998;2022-07-15T10:49:43;15.50;;;3.50;;
72711;SDS011;60828;40.292;17.998;2022-07-15T10:54:46;8.70;;;3.50;;
72711;SDS011;60828;40.292;17.998;2022-07-15T10:57:13;8.10;;;3.50;;
72711;SDS011;60828;40.292;17.998;2022-07-15T10:59:49;5.43;;;3.30;;
72711;SDS011;60828;40.292;17.998;2022-07-15T11:02:17;6.23;;;3.60;;
72711;SDS011;60828;40.292;17.998;2022-07-15T11:04:45;6.28;;;3.95;;
72711;SDS011;60828;40.292;17.998;2022-07-15T11:09:44;22.08;;;4.03;;
72711;SDS011;60828;40.292;17.998;2022-07-15T11:15:00;5.47;;;2.90;;
72711;SDS011;60828;40.292;17.998;2022-07-15T11:20:01;5.28;;;2.60;;
72711;SDS011;60828;40.292;17.998;2022-07-15T11:22:33;70.80;;;6.57;;
72711;SDS011;60828;40.292;17.998;2022-07-15T11:25:01;26.25;;;3.97;;
72711;SDS011;60828;40.292;17.998;2022-07-15T11:27:29;4.77;;;2.80;;
72711;SDS011;60828;40.292;17.998;2022-07-15T11:29:56;4.25;;;2.40;;
72711;SDS011;60828;40.292;17.998;2022-07-15T11:32:28;6.95;;;2.30;;
72711;SDS011;60828;40.292;17.998;2022-07-15T11:34:59;5.50;;;2.40;;
72711;SDS011;60828;40.292;17.998;2022-07-15T11:37:31;5.70;;;2.90;;
72711;SDS011;60828;40.292;17.998;2022-07-15T11:42:36;5.95;;;2.50;;
72711;SDS011;60828;40.292;17.998;2022-07-15T11:45:37;7.25;;;2.90;;
72711;SDS011;60828;40.292;17.998;2022-07-15T11:48:04;6.25;;;2.30;;
72711;SDS011;60828;40.292;17.998;2022-07-15T11:50:36;10.50;;;2.95;;
72711;SDS011;60828;40.292;17.998;2022-07-15T11:53:15;8.17;;;2.90;;
72711;SDS011;60828;40.292;17.998;2022-07-15T11:55:48;5.03;;;2.30;;
72711;SDS011;60828;40.292;17.998;2022-07-15T11:58:14;5.22;;;2.15;;
72711;SDS011;60828;40.292;17.998;2022-07-15T12:00:46;4.67;;;2.37;;
72711;SDS011;60828;40.292;17.998;2022-07-15T12:03:13;4.25;;;2.25;;
72711;SDS011;60828;40.292;17.998;2022-07-15T12:05:38;4.28;;;2.55;;
72711;SDS011;60828;40.292;17.998;2022-07-15T12:08:04;4.90;;;1.90;;
72711;SDS011;60828;40.292;17.998;2022-07-15T12:10:36;5.18;;;2.20;;
72711;SDS011;60828;40.292;17.998;2022-07-15T12:13:04;4.03;;;2.37;;
72711;SDS011;60828;40.292;17.998;2022-07-15T12:15:33;5.30;;;2.40;;
72711;SDS011;60828;40.292;17.998;2022-07-15T12:18:01;6.20;;;3.05;;
72711;SDS011;60828;40.292;17.998;2022-07-15T12:20:28;5.35;;;2.60;;
72711;SDS011;60828;40.292;17.998;2022-07-15T12:25:30;5.53;;;3.50;;
72711;SDS011;60828;40.292;17.998;2022-07-15T12:27:56;8.93;;;3.80;;
72711;SDS011;60828;40.292;17.998;2022-07-15T12:30:29;13.00;;;4.70;;
72711;SDS011;60828;40.292;17.998;2022-07-15T12:35:39;8.68;;;4.70;;
72711;SDS011;60828;40.292;17.998;2022-07-15T12:38:05;4.30;;;2.60;;
72711;SDS011;60828;40.292;17.998;2022-07-15T12:40:33;9.23;;;3.70;;
72711;SDS011;60828;40.292;17.998;2022-07-15T12:42:59;6.17;;;3.60;;
72711;SDS011;60828;40.292;17.998;2022-07-15T12:45:27;8.40;;;4.70;;
72711;SDS011;60828;40.292;17.998;2022-07-15T12:50:36;6.40;;;3.30;;
72711;SDS011;60828;40.292;17.998;2022-07-15T12:53:23;6.05;;;3.55;;
72711;SDS011;60828;40.292;17.998;2022-07-15T12:55:51;5.10;;;3.20;;
72711;SDS011;60828;40.292;17.998;2022-07-15T12:58:23;6.22;;;3.17;;
72711;SDS011;60828;40.292;17.998;2022-07-15T13:00:51;6.05;;;3.10;;
72711;SDS011;60828;40.292;17.998;2022-07-15T13:05:47;4.93;;;2.50;;
72711;SDS011;60828;40.292;17.998;2022-07-15T13:08:21;4.32;;;2.50;;
72711;SDS011;60828;40.292;17.998;2022-07-15T13:10:53;5.82;;;3.00;;
72711;SDS011;60828;40.292;17.998;2022-07-15T13:13:21;9.48;;;3.00;;
72711;SDS011;60828;40.292;17.998;2022-07-15T13:15:49;6.80;;;2.97;;
72711;SDS011;60828;40.292;17.998;2022-07-15T13:18:16;5.53;;;2.90;;
72711;SDS011;60828;40.292;17.998;2022-07-15T13:20:42;7.28;;;3.03;;
72711;SDS011;60828;40.292;17.998;2022-07-15T13:23:10;4.32;;;2.50;;
72711;SDS011;60828;40.292;17.998;2022-07-15T13:25:37;4.97;;;2.70;;
72711;SDS011;60828;40.292;17.998;2022-07-15T13:28:06;4.57;;;2.10;;
72711;SDS011;60828;40.292;17.998;2022-07-15T13:30:33;4.50;;;2.00;;
72711;SDS011;60828;40.292;17.998;2022-07-15T13:33:00;4.00;;;2.05;;
72711;SDS011;60828;40.292;17.998;2022-07-15T13:35:28;4.00;;;2.08;;
72711;SDS011;60828;40.292;17.998;2022-07-15T13:37:54;3.90;;;2.10;;
72711;SDS011;60828;40.292;17.998;2022-07-15T13:40:20;5.87;;;1.90;;
72711;SDS011;60828;40.292;17.998;2022-07-15T13:42:46;4.45;;;1.80;;
72711;SDS011;60828;40.292;17.998;2022-07-15T13:45:12;3.83;;;1.80;;
72711;SDS011;60828;40.292;17.998;2022-07-15T13:47:39;3.63;;;1.65;;
72711;SDS011;60828;40.292;17.998;2022-07-15T13:50:06;5.28;;;1.90;;
72711;SDS011;60828;40.292;17.998;2022-07-15T13:52:52;5.15;;;2.38;;
72711;SDS011;60828;40.292;17.998;2022-07-15T13:55:20;3.88;;;2.03;;
72711;SDS011;60828;40.292;17.998;2022-07-15T13:57:46;4.47;;;2.10;;
72711;SDS011;60828;40.292;17.998;2022-07-15T14:00:16;3.80;;;2.20;;
72711;SDS011;60828;40.292;17.998;2022-07-15T14:02:48;4.47;;;2.10;;
72711;SDS011;60828;40.292;17.998;2022-07-15T14:05:15;4.45;;;2.20;;
72711;SDS011;60828;40.292;17.998;2022-07-15T14:07:41;6.20;;;2.53;;
72711;SDS011;60828;40.292;17.998;2022-07-15T14:10:07;5.43;;;2.80;;
72711;SDS011;60828;40.292;17.998;2022-07-15T14:12:33;7.50;;;3.35;;
72711;SDS011;60828;40.292;17.998;2022-07-15T14:14:59;8.47;;;3.20;;
72711;SDS011;60828;40.292;17.998;2022-07-15T14:17:25;4.97;;;2.70;;
72711;SDS011;60828;40.292;17.998;2022-07-15T14:19:54;4.82;;;2.40;;
72711;SDS011;60828;40.292;17.998;2022-07-15T14:22:20;4.43;;;2.50;;
72711;SDS011;60828;40.292;17.998;2022-07-15T14:24:46;4.40;;;2.72;;
72711;SDS011;60828;40.292;17.998;2022-07-15T14:27:12;5.97;;;2.80;;
72711;SDS011;60828;40.292;17.998;2022-07-15T14:29:37;5.20;;;3.00;;
72711;SDS011;60828;40.292;17.998;2022-07-15T14:32:03;8.37;;;3.40;;
72711;SDS011;60828;40.292;17.998;2022-07-15T14:34:29;6.82;;;3.13;;
72711;SDS011;60828;40.292;17.998;2022-07-15T14:36:56;4.82;;;3.40;;
72711;SDS011;60828;40.292;17.998;2022-07-15T14:39:22;6.80;;;2.70;;
72711;SDS011;60828;40.292;17.998;2022-07-15T14:41:49;5.03;;;2.35;;
72711;SDS011;60828;40.292;17.998;2022-07-15T14:44:17;5.30;;;2.33;;
72711;SDS011;60828;40.292;17.998;2022-07-15T14:46:45;4.47;;;2.65;;
72711;SDS011;60828;40.292;17.998;2022-07-15T14:49:10;5.67;;;2.83;;
72711;SDS011;60828;40.292;17.998;2022-07-15T14:51:35;6.72;;;2.45;;
72711;SDS011;60828;40.292;17.998;2022-07-15T14:54:02;9.20;;;2.40;;
72711;SDS011;60828;40.292;17.998;2022-07-15T14:56:28;5.05;;;2.40;;
72711;SDS011;60828;40.292;17.998;2022-07-15T14:58:54;4.63;;;2.30;;
72711;SDS011;60828;40.292;17.998;2022-07-15T15:01:19;5.73;;;2.57;;
72711;SDS011;60828;40.292;17.998;2022-07-15T15:03:45;4.47;;;1.90;;
72711;SDS011;60828;40.292;17.998;2022-07-15T15:06:10;5.22;;;1.92;;
72711;SDS011;60828;40.292;17.998;2022-07-15T15:08:36;4.43;;;2.00;;
72711;SDS011;60828;40.292;17.998;2022-07-15T15:11:03;4.30;;;2.40;;
72711;SDS011;60828;40.292;17.998;2022-07-15T15:13:31;4.25;;;2.20;;
72711;SDS011;60828;40.292;17.998;2022-07-15T15:15:56;4.77;;;1.83;;
72711;SDS011;60828;40.292;17.998;2022-07-15T15:18:23;6.47;;;2.10;;
72711;SDS011;60828;40.292;17.998;2022-07-15T15:20:48;8.20;;;2.60;;
72711;SDS011;60828;40.292;17.998;2022-07-15T15:23:14;5.93;;;2.10;;
72711;SDS011;60828;40.292;17.998;2022-07-15T15:25:40;8.10;;;2.60;;
72711;SDS011;60828;40.292;17.998;2022-07-15T15:28:24;3.50;;;1.65;;
72711;SDS011;60828;40.292;17.998;2022-07-15T15:30:49;4.77;;;1.73;;
72711;SDS011;60828;40.292;17.998;2022-07-15T15:33:14;4.53;;;1.67;;
72711;SDS011;60828;40.292;17.998;2022-07-15T15:35:40;3.83;;;1.75;;
72711;SDS011;60828;40.292;17.998;2022-07-15T15:38:06;3.50;;;1.90;;
72711;SDS011;60828;40.292;17.998;2022-07-15T15:40:31;11.37;;;2.70;;
72711;SDS011;60828;40.292;17.998;2022-07-15T15:42:57;5.40;;;2.60;;
72711;SDS011;60828;40.292;17.998;2022-07-15T15:45:22;6.50;;;2.70;;
72711;SDS011;60828;40.292;17.998;2022-07-15T15:47:49;7.22;;;2.40;;